• Join FlightAware (Why Join?)
  • Login
  • US Flag 
 
07:27PM EST


 

Airport Tracker/Info


-or-


 

Live Flight TrackerFlight Track Log ✈ N369CA ✈ 11-Apr-2012 ✈ KSTL - KJFK

Flight Track Log - Related Links

Times and Time Zones

All times are in EDT time to prevent confusion due to time zone crossing. See the N369CA flight status page for this flight to view local times or setup timezone preferences in your user account.

Time Position Orientation Groundspeed Altitude Reporting Facility
EDT Latitude Longitude Course Direction KTS MPH feet Rate Location/Type
12:28PM 38.7592 -90.3603 337° Northwest 154 177 1,400  Level FAA TRACON SMA TRACON (SMA)
12:28PM 38.7906 -90.3778 338° Northwest 187 215 2,600 2,040 Climbing FAA TRACON SMA TRACON (SMA)
12:29PM 38.8311 -90.3983 336° Northwest 233 268 4,200 2,640 Climbing FAA TRACON SMA TRACON (SMA)
12:30PM 38.8750 -90.4231 336° Northwest 249 287 6,300 2,880 Climbing FAA TRACON SMA TRACON (SMA)
12:31PM 38.9147 -90.4456 14° North 255 293 8,100 2,100 Climbing FAA TRACON SMA TRACON (SMA)
12:31PM 38.9625 -90.4303 65° Northeast 273 314 9,000 1,740 Climbing FAA TRACON SMA TRACON (SMA)
12:32PM 38.9822 -90.3750 105° East 299 344 10,500 1,680 Climbing FAA TRACON SMA TRACON (SMA)
12:33PM 38.9653 -90.2944 107° East 343 395 11,300 1,500 Climbing FAA TRACON SMA TRACON (SMA)
12:33PM 38.9447 -90.2067 106° East 377 434 12,500 1,800 Climbing FAA TRACON SMA TRACON (SMA)
12:34PM 38.9264 -90.1247 106° East 390 449 13,700 1,800 Climbing FAA TRACON SMA TRACON (SMA)
12:35PM 38.9050 -90.0311 107° East 394 453 14,900 960 Climbing FAA TRACON SMA TRACON (SMA)
12:35PM 38.8847 -89.9442 106° East 413 475 15,000 1,320 Climbing FAA TRACON SMA TRACON (SMA)
12:36PM 38.8628 -89.8453 107° East 419 482 16,700 2,100 Climbing FAA TRACON SMA TRACON (SMA)
12:37PM 38.8406 -89.7497 105° East 402 463 17,800 1,380 Climbing FAA TRACON SMA TRACON (SMA)
12:37PM 38.8225 -89.6650 107° East 403 464 18,600 1,440 Climbing FAA TRACON SMA TRACON (SMA)
12:38PM 38.7992 -89.5667 99° East 417 480 19,800 1,740 Climbing FAA TRACON SMA TRACON (SMA)
12:39PM 38.7864 -89.4653 78° East 418 481 20,900 1,620 Climbing FAA TRACON SMA TRACON (SMA)
12:39PM 38.8003 -89.3775 82° East 408 470 22,000 1,620 Climbing FAA TRACON SMA TRACON (SMA)
12:40PM 38.8111 -89.2767 78° East 415 478 23,100 1,320 Climbing FAA TRACON SMA TRACON (SMA)
12:41PM 38.8275 -89.1733 80° East 428 493 23,800 960 Climbing FAA TRACON SMA TRACON (SMA)
12:41PM 38.8406 -89.0781 77° East 444 511 24,400 1,080 Climbing FAA TRACON SMA TRACON (SMA)
12:42PM 38.8592 -88.9761 81° East 440 506 25,600 960 Climbing Kansas City Center
12:43PM 38.8772 -88.8281 81° East 446 513 26,400 960 Climbing Kansas City Center
12:45PM 38.9175 -88.5003 71° East 463 533 28,500 1,080 Climbing Indianapolis Center
12:46PM 38.9594 -88.3403 69° East 468 539 29,600 1,140 Climbing Indianapolis Center
12:47PM 39.0075 -88.1806 72° East 462 532 30,800 1,260 Climbing Indianapolis Center
12:48PM 39.0469 -88.0253 70° East 462 532 32,200 1,200 Climbing Indianapolis Center
12:49PM 39.0900 -87.8753 70° East 457 526 33,300 840 Climbing Indianapolis Center
12:50PM 39.1283 -87.7358 73° East 451 519 33,900 300 Climbing Indianapolis Center
12:51PM 39.1675 -87.5747 70° East 451 519 34,000  Climbing Indianapolis Center
12:52PM 39.2125 -87.4136 71° East 470 541 34,000 240 Level Indianapolis Center
12:53PM 39.2575 -87.2444 70° East 485 558 34,500 480 Climbing Indianapolis Center
12:54PM 39.3019 -87.0831 71° East 485 558 35,000 240 Climbing Indianapolis Center
12:55PM 39.3467 -86.9133 71° East 485 558 35,000  Level Indianapolis Center
12:56PM 39.3908 -86.7489 72° East 480 552 35,000  Level Indianapolis Center
12:57PM 39.4325 -86.5867 71° East 480 552 35,000  Level Indianapolis Center
12:58PM 39.4764 -86.4219 73° East 480 552 35,000  Level Indianapolis Center
12:59PM 39.5156 -86.2592 70° East 475 547 35,000  Level Indianapolis Center
01:00PM 39.5608 -86.0994 72° East 475 547 35,000  Level Indianapolis Center
01:01PM 39.6017 -85.9392 63° Northeast 475 547 35,000  Level Indianapolis Center
01:02PM 39.6589 -85.7900 60° Northeast 469 540 35,000  Level Indianapolis Center
01:03PM 39.7219 -85.6464 61° Northeast 455 524 35,000  Level Indianapolis Center
01:04PM 39.7828 -85.5022 61° Northeast 455 524 35,000  Level Indianapolis Center
01:05PM 39.8500 -85.3444 60° Northeast 455 524 35,000  Level Indianapolis Center
01:06PM 39.9125 -85.2025 61° Northeast 455 524 35,000  Level Indianapolis Center
01:07PM 39.9728 -85.0578 62° Northeast 449 517 35,000  Level Indianapolis Center
01:08PM 40.0308 -84.9125 61° Northeast 454 522 35,000 -60 Level Indianapolis Center
01:09PM 40.0928 -84.7672 62° Northeast 448 516 34,900  Descending Indianapolis Center
01:10PM 40.1525 -84.6189 63° Northeast 448 516 35,000  Climbing Indianapolis Center
01:11PM 40.2100 -84.4731 62° Northeast 448 516 35,000  Level Indianapolis Center
01:15PM 40.4306 -83.9300 62° Northeast 456 525 35,000  Level Cleveland Center
01:16PM 40.4825 -83.7989 63° Northeast 456 525 35,000  Level Cleveland Center
01:17PM 40.5386 -83.6542 62° Northeast 451 519 35,000  Level Cleveland Center
01:18PM 40.5967 -83.5092 64° Northeast 445 512 35,000  Level Cleveland Center
01:19PM 40.6525 -83.3611 62° Northeast 445 512 35,000  Level Cleveland Center
01:20PM 40.7100 -83.2156 63° Northeast 445 512 35,000  Level Cleveland Center
01:21PM 40.7719 -83.0561 63° Northeast 445 512 35,000  Level Cleveland Center
01:22PM 40.8272 -82.9100 64° Northeast 445 512 35,000  Level Cleveland Center
01:23PM 40.8736 -82.7828 63° Northeast 445 512 35,000  Level Cleveland Center
01:24PM 40.9306 -82.6333 63° Northeast 440 506 35,000  Level Cleveland Center
01:25PM 40.9850 -82.4892 62° Northeast 440 506 35,000  Level Cleveland Center
01:26PM 41.0417 -82.3450 64° Northeast 440 506 35,000  Level Cleveland Center
01:27PM 41.0958 -82.1978 64° Northeast 440 506 35,000  Level Cleveland Center
01:28PM 41.1500 -82.0500 64° Northeast 440 506 35,000  Level Cleveland Center
01:29PM 41.2039 -81.9050 63° Northeast 440 506 35,000  Level Cleveland Center
01:30PM 41.2597 -81.7569 64° Northeast 440 506 35,000  Level Cleveland Center
01:31PM 41.3133 -81.6114 64° Northeast 440 506 35,000  Level Cleveland Center
01:32PM 41.3686 -81.4631 64° Northeast 440 506 35,000  Level Cleveland Center
01:33PM 41.4219 -81.3142 64° Northeast 440 506 35,000  Level Cleveland Center
01:34PM 41.4769 -81.1625 64° Northeast 447 514 35,000  Level Cleveland Center
01:35PM 41.5339 -81.0047 64° Northeast 447 514 35,000  Level Cleveland Center
01:36PM 41.5950 -80.8358 66° East 453 521 35,000  Level Cleveland Center
01:37PM 41.6494 -80.6750 64° Northeast 459 528 35,000  Level Cleveland Center
01:38PM 41.7056 -80.5219 74° East 459 528 35,000  Level Cleveland Center
01:39PM 41.7408 -80.3578 89° East 464 534 35,000  Level Cleveland Center
01:40PM 41.7425 -80.1797 87° East 464 534 35,000  Level Cleveland Center
01:41PM 41.7500 -80.0097 88° East 456 525 35,000  Level Cleveland Center
01:42PM 41.7533 -79.8372 89° East 456 525 35,000  Level Cleveland Center
01:43PM 41.7561 -79.6619 87° East 461 531 35,000  Level Cleveland Center
01:44PM 41.7611 -79.5058 89° East 461 531 35,000  Level Cleveland Center
01:45PM 41.7636 -79.3306 88° East 461 531 35,000  Level Cleveland Center
01:46PM 41.7675 -79.1356 87° East 461 531 35,000  Level Cleveland Center
01:47PM 41.7733 -78.9600 90° East 466 536 35,000  Level Cleveland Center
01:48PM 41.7731 -78.8014 89° East 466 536 35,000  Level Cleveland Center
01:49PM 41.7744 -78.6286 92° East 466 536 35,000  Level Cleveland Center
01:50PM 41.7692 -78.4450 96° East 471 542 35,000  Level Cleveland Center
01:51PM 41.7553 -78.2644 94° East 477 549 35,000  Level Cleveland Center
01:52PM 41.7453 -78.0661 96° East 488 562 35,000  Level New York Center
01:53PM 41.7311 -77.8867 95° East 488 562 35,000  Level New York Center
01:54PM 41.7186 -77.7103 95° East 480 552 35,000  Level New York Center
01:55PM 41.7061 -77.5283 97° East 486 559 35,000  Level New York Center
01:56PM 41.6894 -77.3433 95° East 491 565 35,000  Level New York Center
01:57PM 41.6794 -77.1811 107° East 491 565 35,000  Level New York Center
01:58PM 41.6389 -77.0050 109° East 486 559 35,000  Level New York Center
01:59PM 41.5936 -76.8344 112° Southeast 489 563 35,000  Level New York Center
02:00PM 41.5383 -76.6492 110° East 489 563 35,000 -600 Level New York Center
02:01PM 41.4925 -76.4789 110° East 489 563 33,900 -1,320 Descending New York Center
02:02PM 41.4497 -76.3258 110° East 484 557 32,500 -1,620 Descending New York Center
02:03PM 41.3997 -76.1475 110° East 490 564 30,700 -4,740 Descending New York Center
02:04PM 41.3531 -75.9808 111° Southeast 490 564 23,000 -1,620 Descending New York Center
02:05PM 41.3022 -75.8083 110° East 477 549 27,500 1,440 Climbing New York Center
02:06PM 41.2622 -75.6644 113° Southeast 461 531 26,000 -1,560 Descending New York Center
02:07PM 41.2142 -75.5175 115° Southeast 445 512 24,500 -1,560 Descending New York Center
02:08PM 41.1656 -75.3792 114° Southeast 425 489 23,000 -780 Descending New York Center
02:09PM 41.1186 -75.2411 114° Southeast 417 480 23,000 -600 Level New York Center
02:10PM 41.0700 -75.0947 115° Southeast 415 478 21,900 -1,020 Descending New York Center
02:11PM 41.0208 -74.9542 109° East 420 483 21,000 -660 Descending New York Center
02:12PM 40.9822 -74.8061 105° East 425 489 20,600 -840 Descending New York Center
02:13PM 40.9500 -74.6475 105° East 425 489 19,400 -840 Descending New York Center
02:14PM 40.9158 -74.4836 107° East 425 489 19,000 -240 Descending New York Center
02:15PM 40.8808 -74.3308 101° East 425 489 19,000  Level New York Center
02:15PM 40.8667 -74.2333 116° Southeast 415 478 19,000 -480 Level New York TRACON
02:16PM 40.8167 -74.1000 135° Southeast 331 381 18,300 -1,440 Descending New York TRACON
02:17PM 40.7667 -74.0333 163° South 308 354 16,200 -2,160 Descending New York TRACON
02:18PM 40.6833 -74.0000 171° South 300 345 14,000 -1,620 Descending New York TRACON
02:19PM 40.6000 -73.9833 163° South 298 343 13,000 -960 Descending New York TRACON
02:20PM 40.5167 -73.9500 169° South 292 336 12,100 -1,800 Descending New York TRACON
02:21PM 40.4500 -73.9333 180° South 287 330 9,500 -2,700 Descending New York TRACON
02:22PM 40.3667 -73.9333 159° South 272 313 6,700 -2,760 Descending New York TRACON
02:23PM 40.3000 -73.9000 118° Southeast 277 319 4,000 -2,400 Descending New York TRACON
02:24PM 40.2667 -73.8167 27° Northeast 274 315 2,000 -1,020 Descending New York TRACON
02:25PM 40.3167 -73.7833 14° North 205 236 2,000  Level New York TRACON
02:26PM 40.3667 -73.7667 21° North 209 241 2,000  Level New York TRACON
02:27PM 40.4333 -73.7333 14° North 213 245 2,000  Level New York TRACON
02:28PM 40.4833 -73.7167 27° Northeast 210 242 2,000  Level New York TRACON
02:29PM 40.5333 -73.6833 360° North 193 222 2,000 -180 Level New York TRACON
02:30PM 40.5833 -73.6833 294° West 171 197 1,700 -540 Descending New York TRACON
02:31PM 40.6000 -73.7333 323° Northwest 149 171 1,000 -660 Descending New York TRACON
02:32PM 40.6333 -73.7667 323° Northwest 130 150 400 -600 Descending New York TRACON